Time;durP1;ratioP1;P1;durP2;ratioP2;P2;SDS_P1;SDS_P2;PMS_P1;PMS_P2;Temp;Humidity;BMP_temperature;BMP_pressure;BME280_temperature;BME280_humidity;BME280_pressure;Samples;Min_cycle;Max_cycle;Signal;HPM_P1;HPM_P2
2022/02/05 00:05:38;;;;;;;1.10;1.00;;;7.10;99.90;;;;;;5049579;22;20470;-94
2022/02/05 00:38:12;;;;;;;5.10;0.90;;;6.30;99.90;;;;;;5023080;28;20464;-92
2022/02/05 00:54:32;;;;;;;3.53;1.80;;;5.60;99.90;;;;;;5030930;28;20497;-94
2022/02/05 00:59:52;;;;;;;2.40;1.53;;;5.50;99.90;;;;;;5006583;28;20447;-92
2022/02/05 01:02:24;;;;;;;3.40;1.57;;;5.50;99.90;;;;;;5023340;28;20465;-92
2022/02/05 01:07:38;;;;;;;1.73;1.40;;;5.40;99.90;;;;;;5020287;28;20493;-92
2022/02/05 01:10:07;;;;;;;2.20;1.37;;;5.40;99.90;;;;;;5022041;28;20450;-93
2022/02/05 01:18:26;;;;;;;2.70;1.53;;;5.10;99.90;;;;;;5017999;28;20442;-91
2022/02/05 02:21:10;;;;;;;3.40;1.40;;;4.30;99.90;;;;;;5034846;28;20450;-94
2022/02/05 02:46:27;;;;;;;2.30;1.30;;;4.20;99.90;;;;;;5011094;28;20462;-92
2022/02/05 02:49:00;;;;;;;3.60;1.47;;;4.10;99.90;;;;;;5011542;28;20447;-93
2022/02/05 03:00:39;;;;;;;2.70;1.50;;;3.90;99.90;;;;;;5021269;28;20478;-92
2022/02/05 03:03:10;;;;;;;8.73;2.23;;;3.80;99.90;;;;;;5009500;28;20442;-93
2022/02/05 03:05:50;;;;;;;8.30;2.50;;;3.80;99.90;;;;;;5013105;28;20525;-94
2022/02/05 03:08:31;;;;;;;2.07;1.60;;;3.70;99.90;;;;;;5003699;28;20685;-93
2022/02/05 03:10:58;;;;;;;2.50;2.00;;;3.80;99.90;;;;;;5013499;28;20504;-93
2022/02/05 03:19:16;;;;;;;3.43;1.90;;;3.80;99.90;;;;;;4993382;28;20514;-93
2022/02/05 03:21:46;;;;;;;2.10;1.63;;;3.80;99.90;;;;;;5008655;28;20424;-89
2022/02/05 03:24:13;;;;;;;2.40;1.83;;;3.80;99.90;;;;;;5014240;28;20431;-93
2022/02/05 03:26:40;;;;;;;2.53;1.90;;;3.70;99.90;;;;;;5015689;28;20439;-92
2022/02/05 03:29:09;;;;;;;5.30;2.43;;;3.70;99.90;;;;;;5020134;28;20451;-90
2022/02/05 03:31:38;;;;;;;4.83;1.87;;;3.90;99.90;;;;;;5019925;28;20466;-92
2022/02/05 03:34:07;;;;;;;4.77;2.10;;;3.80;99.90;;;;;;5019866;28;20483;-91
2022/02/05 03:36:36;;;;;;;4.03;1.93;;;3.60;99.90;;;;;;5020041;28;20430;-91
2022/02/05 03:39:04;;;;;;;4.40;2.20;;;3.70;99.90;;;;;;5020061;28;20427;-89
2022/02/05 03:41:31;;;;;;;4.83;2.90;;;3.50;99.90;;;;;;5019946;28;20423;-91
2022/02/05 03:43:58;;;;;;;4.80;1.90;;;3.70;99.90;;;;;;5017466;28;20466;-91
2022/02/05 03:46:25;;;;;;;3.50;2.10;;;3.80;99.90;;;;;;5019495;28;20458;-91
2022/02/05 03:48:52;;;;;;;5.13;2.03;;;3.80;99.90;;;;;;5019680;28;20427;-91
2022/02/05 03:51:20;;;;;;;4.50;2.37;;;3.70;99.90;;;;;;5015074;28;20448;-91
2022/02/05 03:53:47;;;;;;;2.57;1.90;;;3.70;99.90;;;;;;5014902;28;20550;-90
2022/02/05 03:56:14;;;;;;;6.10;3.00;;;3.70;99.90;;;;;;5010478;28;20470;-92
2022/02/05 03:58:40;;;;;;;4.60;2.80;;;3.60;99.90;;;;;;5001401;28;20453;-93
2022/02/05 04:01:07;;;;;;;5.00;2.53;;;3.60;99.90;;;;;;5003573;28;20510;-93
2022/02/05 04:03:44;;;;;;;3.50;2.40;;;3.60;99.90;;;;;;5000328;28;20444;-92
2022/02/05 04:06:11;;;;;;;3.13;2.40;;;3.70;99.90;;;;;;5003391;28;20470;-92
2022/02/05 04:08:49;;;;;;;6.87;2.87;;;3.70;99.90;;;;;;5005173;28;20443;-89
2022/02/05 04:11:32;;;;;;;5.73;2.60;;;3.80;99.90;;;;;;5002963;28;20445;-92
2022/02/05 04:16:51;;;;;;;3.20;2.10;;;3.70;99.90;;;;;;5003549;28;20486;-93
2022/02/05 04:19:18;;;;;;;3.50;2.50;;;3.70;99.90;;;;;;5000153;28;20447;-92
2022/02/05 04:21:46;;;;;;;4.97;2.73;;;3.60;99.90;;;;;;5000284;28;20499;-93
2022/02/05 04:24:17;;;;;;;3.73;2.37;;;3.60;99.90;;;;;;4996449;28;20458;-92
2022/02/05 04:26:46;;;;;;;4.33;2.77;;;3.60;99.90;;;;;;4995113;28;20501;-92
2022/02/05 04:31:58;;;;;;;7.90;3.50;;;3.60;99.90;;;;;;5000745;28;20506;-91
2022/02/05 04:34:28;;;;;;;3.27;2.57;;;3.70;99.90;;;;;;4994551;28;20451;-92
2022/02/05 04:36:55;;;;;;;3.93;2.80;;;3.70;99.90;;;;;;4998913;28;20455;-92
2022/02/05 04:39:23;;;;;;;2.63;2.43;;;3.90;99.90;;;;;;5000027;28;20542;-93
2022/02/05 04:41:56;;;;;;;5.13;2.50;;;3.90;99.90;;;;;;4996841;28;20446;-92
2022/02/05 04:44:33;;;;;;;2.83;2.50;;;4.00;99.90;;;;;;5010987;28;20431;-91
2022/02/05 04:52:53;;;;;;;4.00;3.00;;;3.90;99.90;;;;;;5009314;28;20481;-90
2022/02/05 04:55:55;;;;;;;4.37;2.80;;;3.90;99.90;;;;;;5016208;28;20574;-92
2022/02/05 04:58:48;;;;;;;3.10;2.77;;;3.90;99.90;;;;;;5007776;28;20443;-91
2022/02/05 05:01:36;;;;;;;4.87;3.10;;;4.00;99.90;;;;;;5003713;28;20432;-89
2022/02/05 05:04:18;;;;;;;3.50;2.50;;;4.10;99.90;;;;;;5008831;28;20966;-92
2022/02/05 05:07:45;;;;;;;6.70;2.53;;;4.20;99.90;;;;;;5003565;28;20467;-92
2022/02/05 05:09:46;;;;;;;4.87;2.90;;;4.30;99.90;;;;;;4994112;28;20451;-92
2022/02/05 05:12:22;;;;;;;4.67;2.90;;;4.30;99.90;;;;;;4993139;28;20472;-93
2022/02/05 05:20:22;;;;;;;3.33;2.40;;;4.30;99.90;;;;;;4994479;28;20426;-92
2022/02/05 05:22:50;;;;;;;3.23;2.30;;;4.30;99.90;;;;;;5001143;28;20944;-92
2022/02/05 05:25:18;;;;;;;3.27;2.40;;;4.30;99.90;;;;;;4996429;28;20496;-92
2022/02/05 05:27:46;;;;;;;5.17;2.70;;;4.30;99.90;;;;;;5000703;28;20457;-92
2022/02/05 05:30:14;;;;;;;4.13;3.17;;;4.30;99.90;;;;;;5007247;28;20447;-93
2022/02/05 05:32:50;;;;;;;5.17;2.43;;;4.40;99.90;;;;;;5007095;28;20470;-93
2022/02/05 05:35:17;;;;;;;3.20;2.90;;;4.40;99.90;;;;;;4998982;28;20466;-92
2022/02/05 05:37:53;;;;;;;3.10;2.40;;;4.40;99.90;;;;;;5000139;28;20519;-91
2022/02/05 05:40:20;;;;;;;3.00;1.93;;;4.40;99.90;;;;;;5002677;28;20442;-91
2022/02/05 05:42:54;;;;;;;6.43;2.60;;;4.50;99.90;;;;;;5012373;28;20443;-92
2022/02/05 05:48:15;;;;;;;6.33;3.10;;;4.60;99.90;;;;;;5014297;28;20433;-89
2022/02/05 05:50:58;;;;;;;2.80;2.50;;;4.60;99.90;;;;;;5015819;28;20439;-93
2022/02/05 06:02:54;;;;;;;4.30;2.87;;;4.70;99.90;;;;;;5021709;28;20469;-92
2022/02/05 06:05:26;;;;;;;4.17;2.30;;;4.70;99.90;;;;;;5025824;28;20450;-92
2022/02/05 06:07:55;;;;;;;4.63;3.00;;;4.80;99.90;;;;;;5026270;28;20496;-91
2022/02/05 06:10:22;;;;;;;6.20;2.60;;;4.80;99.90;;;;;;5021107;28;20440;-92
2022/02/05 06:12:52;;;;;;;4.73;2.33;;;4.80;99.90;;;;;;5032111;28;20493;-90
2022/02/05 06:15:23;;;;;;;4.90;2.67;;;4.90;99.90;;;;;;5018847;28;20474;-92
2022/02/05 06:17:54;;;;;;;5.73;2.53;;;4.90;99.90;;;;;;5020289;28;20465;-92
2022/02/05 06:20:24;;;;;;;5.63;2.80;;;4.90;99.90;;;;;;5019456;28;20458;-92
2022/02/05 06:22:54;;;;;;;2.30;1.83;;;4.90;99.90;;;;;;5032071;28;20434;-91
2022/02/05 06:25:24;;;;;;;5.63;2.03;;;4.90;99.90;;;;;;5022437;28;20585;-92
2022/02/05 06:27:51;;;;;;;5.83;3.43;;;4.90;99.90;;;;;;5035970;28;20461;-89
2022/02/05 06:30:20;;;;;;;4.60;2.03;;;4.90;99.90;;;;;;5034879;28;20453;-90
2022/02/05 06:32:51;;;;;;;4.77;2.60;;;4.90;99.90;;;;;;5030988;28;20469;-91
2022/02/05 06:35:22;;;;;;;4.27;2.30;;;4.80;99.90;;;;;;5016993;28;20461;-91
2022/02/05 06:37:49;;;;;;;3.67;2.70;;;4.70;99.90;;;;;;5016727;28;20442;-91
2022/02/05 06:40:16;;;;;;;3.23;2.23;;;4.70;99.90;;;;;;5023955;28;20427;-89
2022/02/05 06:42:46;;;;;;;7.53;4.10;;;4.80;99.90;;;;;;5035380;28;20486;-88
2022/02/05 06:45:13;;;;;;;5.20;2.53;;;4.80;99.90;;;;;;5030464;28;20450;-91
2022/02/05 06:47:45;;;;;;;6.17;3.23;;;4.90;99.90;;;;;;5019568;28;20695;-91
2022/02/05 06:52:47;;;;;;;6.30;4.00;;;4.90;99.90;;;;;;3154899;26;20461;-91
2022/02/05 06:55:14;;;;;;;8.20;2.67;;;4.90;99.90;;;;;;5040965;28;20462;-89
2022/02/05 06:57:41;;;;;;;6.43;3.23;;;4.90;99.90;;;;;;5017714;28;20443;-90
2022/02/05 07:00:10;;;;;;;10.07;3.77;;;4.90;99.90;;;;;;5022160;28;20457;-90
2022/02/05 07:02:37;;;;;;;5.47;3.30;;;4.90;99.90;;;;;;5017344;28;20446;-91
2022/02/05 07:05:10;;;;;;;6.80;2.67;;;4.90;99.90;;;;;;5021891;28;20467;-89
2022/02/05 07:07:37;;;;;;;10.90;3.37;;;5.00;99.90;;;;;;5030578;28;20448;-90
2022/02/05 07:10:08;;;;;;;4.43;2.40;;;4.90;99.90;;;;;;5016670;28;20455;-92
2022/02/05 07:12:42;;;;;;;8.60;4.57;;;4.90;99.90;;;;;;5019869;28;20470;-92
2022/02/05 07:15:18;;;;;;;5.67;2.80;;;5.00;99.90;;;;;;5029750;28;20457;-89
2022/02/05 07:17:58;;;;;;;2.93;2.23;;;5.00;99.90;;;;;;5019775;28;20537;-92
2022/02/05 07:20:37;;;;;;;3.13;2.10;;;4.90;99.90;;;;;;5017158;28;20450;-91
2022/02/05 07:23:26;;;;;;;5.90;2.60;;;5.00;99.90;;;;;;5017011;28;20479;-91
2022/02/05 07:31:23;;;;;;;10.63;3.97;;;5.00;99.90;;;;;;5031926;28;20426;-89
2022/02/05 07:33:50;;;;;;;4.10;3.00;;;5.10;99.90;;;;;;5020039;28;20473;-91
2022/02/05 07:36:19;;;;;;;6.17;2.60;;;5.10;99.90;;;;;;5017051;28;20467;-92
2022/02/05 07:38:47;;;;;;;2.70;2.47;;;5.10;99.90;;;;;;5014534;28;20947;-92
2022/02/05 07:41:14;;;;;;;13.80;2.67;;;5.10;99.90;;;;;;5022369;28;20443;-91
2022/02/05 07:43:41;;;;;;;6.90;3.50;;;5.10;99.90;;;;;;5028743;28;20457;-92
2022/02/05 07:46:10;;;;;;;8.10;2.90;;;5.10;99.90;;;;;;5019099;28;20467;-92
2022/02/05 07:48:37;;;;;;;5.93;2.60;;;5.10;99.90;;;;;;5017501;28;20453;-90
2022/02/05 07:51:05;;;;;;;7.00;2.53;;;5.10;99.90;;;;;;5021077;28;20947;-91
2022/02/05 07:53:34;;;;;;;5.97;2.90;;;5.20;99.90;;;;;;5016717;28;20470;-92
2022/02/05 07:56:01;;;;;;;4.07;2.60;;;5.10;99.90;;;;;;5016990;28;20494;-91
2022/02/05 07:58:28;;;;;;;6.73;2.50;;;5.20;99.90;;;;;;5018886;28;20457;-92
2022/02/05 08:00:55;;;;;;;4.30;3.27;;;5.10;99.90;;;;;;5012554;28;20446;-93
2022/02/05 08:03:26;;;;;;;7.37;2.90;;;5.00;99.90;;;;;;5026003;28;20441;-91
2022/02/05 08:05:52;;;;;;;5.10;2.57;;;5.00;99.90;;;;;;5025129;28;20552;-90
2022/02/05 08:08:23;;;;;;;13.90;2.53;;;5.00;99.90;;;;;;5024848;28;20451;-92
2022/02/05 08:10:57;;;;;;;6.07;2.60;;;4.90;99.90;;;;;;5018421;28;20475;-92
2022/02/05 08:13:27;;;;;;;5.20;2.20;;;5.00;99.90;;;;;;5014656;28;20478;-91
2022/02/05 08:15:57;;;;;;;3.30;2.00;;;5.10;99.90;;;;;;5044586;22;20472;-87
2022/02/05 08:18:24;;;;;;;3.57;2.43;;;5.10;99.90;;;;;;5011819;28;20517;-89
2022/02/05 08:20:51;;;;;;;5.07;2.50;;;5.10;99.90;;;;;;5028576;28;20427;-89
2022/02/05 08:23:18;;;;;;;11.40;2.73;;;5.10;99.90;;;;;;5022998;28;20439;-88
2022/02/05 08:25:46;;;;;;;4.13;2.80;;;5.10;99.90;;;;;;5017285;28;20461;-88
2022/02/05 08:28:15;;;;;;;8.10;3.00;;;5.10;99.90;;;;;;5014077;28;20439;-88
2022/02/05 08:30:41;;;;;;;5.40;2.20;;;5.10;99.90;;;;;;5012295;28;20478;-90
2022/02/05 08:33:08;;;;;;;7.20;2.97;;;5.10;99.90;;;;;;5017692;28;20466;-88
2022/02/05 08:35:35;;;;;;;10.07;2.63;;;5.20;99.90;;;;;;5008688;28;20458;-90
2022/02/05 08:38:05;;;;;;;3.67;2.50;;;5.20;99.90;;;;;;5022509;28;20563;-89
2022/02/05 08:40:32;;;;;;;2.50;1.90;;;5.30;99.90;;;;;;5006239;28;20443;-87
2022/02/05 08:42:59;;;;;;;11.70;2.87;;;5.40;99.90;;;;;;5011358;28;20432;-85
2022/02/05 08:45:27;;;;;;;6.50;2.47;;;5.50;99.90;;;;;;5014095;28;20447;-86
2022/02/05 08:47:54;;;;;;;2.53;2.33;;;6.00;99.90;;;;;;5009696;28;20470;-87
2022/02/05 08:50:21;;;;;;;3.10;2.80;;;6.50;99.90;;;;;;5009307;28;20451;-86
2022/02/05 08:52:53;;;;;;;5.87;1.93;;;6.90;99.10;;;;;;4998498;28;20451;-87
2022/02/05 08:55:20;;;;;;;6.90;2.33;;;7.20;98.50;;;;;;5004626;28;20508;-88
2022/02/05 08:57:47;;;;;;;5.20;2.43;;;7.30;97.70;;;;;;5009785;28;20457;-85
2022/02/05 09:00:22;;;;;;;4.60;2.00;;;7.50;97.70;;;;;;4999419;28;20464;-85
2022/02/05 09:02:59;;;;;;;4.50;2.80;;;7.70;97.70;;;;;;4999727;28;20457;-87
2022/02/05 09:05:40;;;;;;;7.10;2.33;;;8.20;97.10;;;;;;4998205;28;20457;-88
2022/02/05 09:08:19;;;;;;;7.87;2.80;;;8.30;96.30;;;;;;4999079;28;20545;-87
2022/02/05 09:10:55;;;;;;;3.10;2.20;;;8.00;95.90;;;;;;5005655;28;21029;-88
2022/02/05 09:13:39;;;;;;;5.77;2.27;;;8.40;95.80;;;;;;4999741;28;20485;-87
2022/02/05 09:16:07;;;;;;;8.63;3.83;;;8.90;95.50;;;;;;4994012;28;20475;-87
2022/02/05 09:18:36;;;;;;;4.10;3.27;;;9.40;94.70;;;;;;4997764;28;20506;-85
2022/02/05 09:21:03;;;;;;;5.33;2.27;;;9.70;93.70;;;;;;4999902;28;20461;-88
2022/02/05 09:23:33;;;;;;;8.33;2.00;;;9.90;93.60;;;;;;5001599;28;20454;-88
2022/02/05 09:26:00;;;;;;;9.90;3.20;;;9.70;92.60;;;;;;5014052;28;20471;-87
2022/02/05 09:28:29;;;;;;;5.93;2.00;;;9.20;93.70;;;;;;4997686;28;20490;-87
2022/02/05 09:31:24;;;;;;;6.50;1.77;;;9.10;93.40;;;;;;4996500;28;20505;-88
2022/02/05 09:33:50;;;;;;;3.27;1.50;;;9.00;93.10;;;;;;5002966;28;20458;-88
2022/02/05 09:36:17;;;;;;;4.40;2.07;;;9.30;93.50;;;;;;4996663;28;20473;-87
2022/02/05 09:38:44;;;;;;;5.30;1.77;;;10.40;92.40;;;;;;4993731;28;20448;-87
2022/02/05 09:41:11;;;;;;;5.10;2.40;;;11.10;90.30;;;;;;4997484;28;20447;-87
2022/02/05 09:43:37;;;;;;;8.13;2.00;;;10.90;89.20;;;;;;4995761;28;20447;-87
2022/02/05 09:46:04;;;;;;;2.33;1.50;;;11.10;88.50;;;;;;5005355;28;20512;-86
2022/02/05 09:48:32;;;;;;;6.47;2.00;;;11.10;87.50;;;;;;4998571;28;20442;-86
2022/02/05 09:51:05;;;;;;;9.63;2.57;;;10.70;87.40;;;;;;5000675;28;20458;-85
2022/02/05 09:53:32;;;;;;;3.90;2.07;;;10.40;88.10;;;;;;4997198;28;20477;-85
2022/02/05 09:55:59;;;;;;;3.63;2.03;;;10.20;88.40;;;;;;4991997;28;20960;-87
2022/02/05 09:58:25;;;;;;;2.20;1.10;;;10.20;86.80;;;;;;4994951;28;20498;-86
2022/02/05 10:01:00;;;;;;;7.00;1.90;;;9.80;89.70;;;;;;5016619;28;20450;-87
2022/02/05 10:03:29;;;;;;;6.43;2.20;;;9.70;90.60;;;;;;5012872;28;20423;-85
2022/02/05 10:06:09;;;;;;;3.33;1.40;;;9.50;90.30;;;;;;5005414;28;20535;-87
2022/02/05 10:08:37;;;;;;;4.00;1.33;;;9.50;90.90;;;;;;4999850;28;20509;-87
2022/02/05 10:11:05;;;;;;;2.90;1.20;;;10.10;89.80;;;;;;4996285;28;20452;-87
2022/02/05 10:13:32;;;;;;;5.77;2.87;;;10.90;87.40;;;;;;4991250;28;20514;-87
2022/02/05 10:15:59;;;;;;;3.90;1.57;;;11.90;84.60;;;;;;4997106;28;20510;-89
2022/02/05 10:18:28;;;;;;;2.67;1.37;;;13.30;82.40;;;;;;5004818;28;20445;-89
2022/02/05 10:20:56;;;;;;;4.80;1.83;;;14.50;75.60;;;;;;5009691;28;20965;-89
2022/02/05 10:23:24;;;;;;;5.73;3.07;;;14.50;73.00;;;;;;5004829;28;20954;-89
2022/02/05 10:25:53;;;;;;;6.27;1.73;;;15.40;72.70;;;;;;4995354;28;20467;-89
2022/02/05 10:28:21;;;;;;;3.73;1.53;;;15.90;66.20;;;;;;4989957;28;20815;-88
2022/02/05 10:30:50;;;;;;;6.33;1.97;;;16.20;64.60;;;;;;4999191;28;20448;-87
2022/02/05 10:33:21;;;;;;;4.47;2.20;;;17.50;63.50;;;;;;4998540;28;20447;-85
2022/02/05 10:35:54;;;;;;;6.30;2.53;;;18.70;59.10;;;;;;4997602;28;20546;-84
2022/02/05 10:38:47;;;;;;;10.87;4.33;;;19.10;56.90;;;;;;4995154;28;20449;-83
2022/02/05 10:44:10;;;;;;;3.63;1.63;;;17.20;58.50;;;;;;5006273;28;20435;-83
2022/02/05 10:46:42;;;;;;;4.23;1.30;;;17.20;55.60;;;;;;5019754;28;20448;-85
2022/02/05 10:49:09;;;;;;;2.03;1.60;;;16.20;56.60;;;;;;5020970;28;20452;-85
2022/02/05 10:51:45;;;;;;;4.63;1.80;;;16.00;57.60;;;;;;5014368;28;20431;-88
2022/02/05 10:54:24;;;;;;;4.93;1.80;;;15.70;57.80;;;;;;5012755;28;20473;-89
2022/02/05 10:56:59;;;;;;;2.10;1.50;;;16.50;58.50;;;;;;5007698;28;20525;-88
2022/02/05 10:59:45;;;;;;;5.83;4.03;;;16.50;55.70;;;;;;5010751;28;20475;-88
2022/02/05 11:05:15;;;;;;;5.33;1.53;;;15.10;57.90;;;;;;5011039;28;20422;-85
2022/02/05 11:07:43;;;;;;;4.10;1.73;;;15.30;58.10;;;;;;4988655;28;20470;-86
2022/02/05 11:16:08;;;;;;;2.40;1.40;;;19.00;55.50;;;;;;4989793;28;20590;-85
2022/02/05 11:18:45;;;;;;;3.67;1.60;;;19.80;52.30;;;;;;4997598;28;20891;-86
2022/02/05 11:21:13;;;;;;;8.50;2.43;;;22.00;50.30;;;;;;4996287;28;20457;-86
2022/02/05 11:23:39;;;;;;;3.37;1.30;;;23.60;47.30;;;;;;5007006;28;20466;-85
2022/02/05 11:26:08;;;;;;;4.77;1.70;;;23.00;44.40;;;;;;4998475;28;20500;-86
2022/02/05 11:28:45;;;;;;;3.83;1.60;;;20.10;44.40;;;;;;5005474;28;20464;-86
2022/02/05 11:31:14;;;;;;;4.90;1.37;;;19.00;46.90;;;;;;5016107;28;20451;-85
2022/02/05 11:33:41;;;;;;;4.27;1.47;;;19.50;47.10;;;;;;5001291;28;20548;-86
2022/02/05 11:39:03;;;;;;;3.90;1.77;;;20.30;44.40;;;;;;4988623;28;20455;-84
2022/02/05 11:41:34;;;;;;;3.43;1.30;;;18.90;45.80;;;;;;4996406;28;20437;-88
2022/02/05 11:44:14;;;;;;;4.93;1.97;;;18.80;46.70;;;;;;5002888;28;20821;-87
2022/02/05 11:46:42;;;;;;;3.97;1.60;;;19.20;47.00;;;;;;5005763;28;20443;-87
2022/02/05 11:49:10;;;;;;;2.97;1.20;;;19.20;46.80;;;;;;5024297;28;20462;-88
2022/02/05 11:51:45;;;;;;;4.30;1.30;;;18.60;46.70;;;;;;5018950;28;20502;-90
2022/02/05 11:54:17;;;;;;;5.43;1.77;;;20.00;46.40;;;;;;5018047;28;20484;-89
2022/02/05 11:56:56;;;;;;;1.90;1.33;;;19.60;44.80;;;;;;5001092;28;20474;-88
2022/02/05 11:59:26;;;;;;;2.40;1.27;;;18.20;46.00;;;;;;4999559;28;20447;-88
2022/02/05 12:02:13;;;;;;;3.27;1.70;;;16.80;47.80;;;;;;5001549;28;20472;-86
2022/02/05 12:04:40;;;;;;;4.37;1.70;;;15.40;50.40;;;;;;4994980;28;20514;-85
2022/02/05 12:07:09;;;;;;;2.33;1.50;;;15.70;51.40;;;;;;4994711;28;20554;-89
2022/02/05 12:09:44;;;;;;;5.20;1.63;;;15.40;50.30;;;;;;4994764;28;20458;-86
2022/02/05 12:12:46;;;;;;;3.10;1.40;;;14.50;51.00;;;;;;4998421;28;20482;-85
2022/02/05 12:15:26;;;;;;;3.43;1.37;;;13.70;52.50;;;;;;4997309;28;21034;-89
2022/02/05 12:18:19;;;;;;;2.37;1.50;;;13.40;53.70;;;;;;4994063;28;20466;-86
2022/02/05 12:21:07;;;;;;;4.70;2.00;;;13.60;53.60;;;;;;4991828;28;20467;-86
2022/02/05 12:27:01;;;;;;;4.20;2.10;;;15.80;51.70;;;;;;5008333;28;20449;-85
2022/02/05 12:29:31;;;;;;;5.03;2.83;;;17.30;49.10;;;;;;5002126;28;20465;-86
2022/02/05 12:31:59;;;;;;;7.77;4.00;;;17.60;47.50;;;;;;4995382;28;20440;-86
2022/02/05 12:34:34;;;;;;;4.87;2.17;;;17.70;47.90;;;;;;5009855;28;20522;-86
2022/02/05 12:37:03;;;;;;;2.73;1.77;;;19.30;46.90;;;;;;4991595;28;20481;-86
2022/02/05 12:39:32;;;;;;;5.07;2.77;;;20.40;45.40;;;;;;4996380;28;20498;-87
2022/02/05 12:42:01;;;;;;;4.63;1.97;;;21.10;43.70;;;;;;5007683;28;20479;-88
2022/02/05 12:44:31;;;;;;;5.23;1.67;;;21.20;43.40;;;;;;5005151;28;20451;-89
2022/02/05 12:47:03;;;;;;;5.17;1.80;;;22.00;42.50;;;;;;5002162;28;20474;-86
2022/02/05 12:49:36;;;;;;;4.27;1.63;;;21.40;41.50;;;;;;4993847;28;20526;-85
2022/02/05 12:52:04;;;;;;;5.20;3.07;;;19.30;42.40;;;;;;5015130;28;20841;-85
2022/02/05 12:54:33;;;;;;;4.50;2.60;;;19.60;43.80;;;;;;4993845;28;20828;-86
2022/02/05 12:57:02;;;;;;;2.13;1.50;;;20.50;43.50;;;;;;5004721;28;20466;-86
2022/02/05 12:59:36;;;;;;;3.60;1.87;;;21.50;42.20;;;;;;5004036;28;20451;-86
2022/02/05 13:02:05;;;;;;;4.43;2.33;;;21.10;41.70;;;;;;5015558;28;20455;-84
2022/02/05 13:04:33;;;;;;;6.37;1.60;;;20.40;42.40;;;;;;5012610;28;20416;-86
2022/02/05 13:07:02;;;;;;;1.43;1.33;;;19.70;42.90;;;;;;5015681;28;20456;-84
2022/02/05 13:09:30;;;;;;;2.40;1.30;;;18.60;44.20;;;;;;5016104;28;20431;-84
2022/02/05 13:12:00;;;;;;;6.17;2.70;;;17.50;44.90;;;;;;5013285;28;20451;-86
2022/02/05 13:14:40;;;;;;;6.90;3.40;;;16.70;45.90;;;;;;5020464;28;20478;-88
2022/02/05 13:17:20;;;;;;;6.17;3.33;;;15.60;47.70;;;;;;5026229;28;20534;-84
2022/02/05 13:20:04;;;;;;;4.03;2.10;;;15.20;49.00;;;;;;5007532;28;20450;-86
2022/02/05 13:25:42;;;;;;;12.10;6.10;;;14.50;51.10;;;;;;5022030;28;20449;-86
2022/02/05 13:34:09;;;;;;;2.77;1.50;;;13.10;53.00;;;;;;5103841;28;20466;-85
2022/02/05 13:36:45;;;;;;;2.83;0.90;;;13.10;53.40;;;;;;5105191;28;20463;-86
2022/02/05 13:39:29;;;;;;;2.20;1.90;;;14.30;53.60;;;;;;5105258;28;20428;-86
2022/02/05 13:42:01;;;;;;;3.00;0.90;;;13.80;51.50;;;;;;5103859;28;20554;-86
2022/02/05 13:44:41;;;;;;;4.47;1.33;;;13.70;52.30;;;;;;5104251;28;20445;-86
2022/02/05 13:47:13;;;;;;;1.50;0.90;;;14.40;52.10;;;;;;5104586;28;20991;-86
2022/02/05 13:49:41;;;;;;;1.43;1.00;;;14.60;50.80;;;;;;5102630;28;20479;-86
2022/02/05 13:52:11;;;;;;;2.30;1.70;;;15.50;51.30;;;;;;5103231;28;20441;-86
2022/02/05 13:54:43;;;;;;;5.57;1.47;;;16.30;48.70;;;;;;5088076;28;20442;-87
2022/02/05 13:57:11;;;;;;;3.40;1.30;;;17.40;48.20;;;;;;5081964;28;20471;-85
2022/02/05 13:59:38;;;;;;;2.60;1.90;;;18.20;47.30;;;;;;5100967;28;20434;-83
2022/02/05 14:02:18;;;;;;;4.70;1.40;;;18.50;45.80;;;;;;5103035;28;20443;-84
2022/02/05 14:04:45;;;;;;;2.40;1.57;;;17.70;46.40;;;;;;5101518;28;20448;-86
2022/02/05 14:07:13;;;;;;;3.10;2.63;;;17.00;46.80;;;;;;5081232;28;20477;-85
2022/02/05 14:09:40;;;;;;;3.77;1.40;;;16.50;48.00;;;;;;5086956;28;20467;-84
2022/02/05 14:12:18;;;;;;;3.90;1.60;;;16.30;48.60;;;;;;5093230;28;20448;-82
2022/02/05 14:15:00;;;;;;;6.33;3.10;;;16.10;49.10;;;;;;5098131;28;20468;-87
2022/02/05 14:17:36;;;;;;;8.90;3.90;;;15.30;50.00;;;;;;5161897;22;20479;-94
2022/02/05 14:20:20;;;;;;;7.60;4.10;;;14.80;51.10;;;;;;5065670;28;20514;-92
2022/02/05 14:22:51;;;;;;;17.07;6.50;;;14.70;50.90;;;;;;5078611;28;20435;-93
2022/02/05 14:28:14;;;;;;;5.93;2.60;;;14.10;52.20;;;;;;5059292;28;20451;-91
2022/02/05 14:31:04;;;;;;;3.80;1.60;;;13.90;52.50;;;;;;5078080;28;20654;-92
2022/02/05 14:42:47;;;;;;;4.77;2.63;;;11.40;57.10;;;;;;5074315;28;20431;-92
2022/02/05 14:45:23;;;;;;;12.17;6.40;;;11.10;57.60;;;;;;5075675;28;20467;-93
2022/02/05 14:47:55;;;;;;;7.87;3.77;;;11.30;57.90;;;;;;5070468;28;20470;-92
2022/02/05 14:50:29;;;;;;;7.83;4.40;;;11.80;57.50;;;;;;5065066;28;20496;-91
2022/02/05 14:55:55;;;;;;;4.73;1.90;;;12.50;55.20;;;;;;5065698;28;20531;-93
2022/02/05 14:58:25;;;;;;;2.67;1.63;;;12.60;54.40;;;;;;5066885;28;20518;-91
2022/02/05 15:01:11;;;;;;;8.13;3.53;;;12.50;54.30;;;;;;5065253;28;20814;-91
2022/02/05 15:03:48;;;;;;;9.03;5.20;;;12.20;54.70;;;;;;5059646;28;20447;-95
2022/02/05 15:09:26;;;;;;;4.90;3.20;;;11.90;55.10;;;;;;5044835;28;20483;-93
2022/02/05 15:11:56;;;;;;;12.67;6.57;;;12.10;54.80;;;;;;5063736;28;20456;-92
2022/02/05 15:14:35;;;;;;;16.57;6.90;;;12.20;55.00;;;;;;5064028;28;20476;-92
2022/02/05 15:17:13;;;;;;;3.10;1.10;;;12.10;55.20;;;;;;5063712;28;20476;-93
2022/02/05 15:19:44;;;;;;;3.13;0.80;;;11.40;55.10;;;;;;5062747;28;20440;-93
2022/02/05 15:22:28;;;;;;;2.67;1.10;;;10.80;56.10;;;;;;5064679;28;20536;-92
2022/02/05 15:27:51;;;;;;;2.90;1.60;;;10.10;58.30;;;;;;5068895;28;20653;-95
2022/02/05 15:33:12;;;;;;;3.00;1.50;;;9.90;59.60;;;;;;5065242;28;20444;-91
2022/02/05 15:36:13;;;;;;;3.40;2.00;;;9.80;60.40;;;;;;5068868;28;20428;-91
2022/02/05 15:44:24;;;;;;;2.37;1.33;;;9.50;63.40;;;;;;5067321;28;20404;-91
2022/02/05 15:49:31;;;;;;;2.70;1.23;;;9.10;64.00;;;;;;5070175;22;20469;-94
2022/02/05 15:51:59;;;;;;;2.27;1.10;;;9.00;64.60;;;;;;5058693;28;20465;-93
2022/02/05 15:54:30;;;;;;;3.73;1.17;;;8.90;65.20;;;;;;5058771;28;20452;-92
2022/02/05 15:57:03;;;;;;;3.07;1.40;;;8.80;66.40;;;;;;5058042;28;20484;-91
2022/02/05 15:59:50;;;;;;;2.60;1.10;;;8.80;66.90;;;;;;5049033;28;20460;-91
2022/02/05 16:05:17;;;;;;;2.50;1.67;;;8.80;66.40;;;;;;5059048;28;20426;-91
2022/02/05 16:07:57;;;;;;;5.00;2.50;;;8.70;66.60;;;;;;5059091;28;20489;-92
2022/02/05 16:10:49;;;;;;;10.83;3.13;;;8.70;67.40;;;;;;5057706;28;20507;-90
2022/02/05 16:13:21;;;;;;;2.13;1.53;;;8.70;67.60;;;;;;5054244;28;20512;-91
2022/02/05 16:15:52;;;;;;;3.00;1.60;;;8.60;67.50;;;;;;5057101;28;20513;-91
2022/02/05 16:18:21;;;;;;;4.10;1.80;;;8.50;68.80;;;;;;5046361;28;20557;-91
2022/02/05 16:20:52;;;;;;;4.70;1.30;;;8.40;69.30;;;;;;5057084;28;20441;-91
2022/02/05 16:26:07;;;;;;;2.20;2.00;;;8.20;70.60;;;;;;5047702;28;20452;-91
2022/02/05 16:28:47;;;;;;;2.73;1.73;;;8.10;70.90;;;;;;5049637;28;20445;-90
2022/02/05 16:31:19;;;;;;;1.93;1.73;;;8.00;71.70;;;;;;5054711;28;20469;-90
2022/02/05 16:33:53;;;;;;;3.53;1.40;;;8.00;72.50;;;;;;5056164;28;20428;-90
2022/02/05 16:36:27;;;;;;;7.87;1.60;;;8.00;72.40;;;;;;5050366;28;20473;-90
2022/02/05 16:39:06;;;;;;;6.50;2.13;;;7.90;72.40;;;;;;5043290;28;20552;-90
2022/02/05 16:41:35;;;;;;;3.70;1.83;;;7.90;72.80;;;;;;5058146;28;20441;-90
2022/02/05 16:44:02;;;;;;;4.17;1.50;;;7.80;73.40;;;;;;5041596;28;20449;-90
2022/02/05 16:46:39;;;;;;;7.63;1.57;;;7.80;73.80;;;;;;5050952;28;20469;-93
2022/02/05 16:49:06;;;;;;;5.20;2.00;;;7.70;73.90;;;;;;5049739;28;20445;-94
2022/02/05 17:17:21;;;;;;;4.33;2.27;;;7.60;76.90;;;;;;5024562;28;20462;-93
2022/02/05 17:22:30;;;;;;;4.10;2.77;;;7.60;76.80;;;;;;5027881;28;21100;-89
2022/02/05 17:24:59;;;;;;;3.83;2.50;;;7.60;76.60;;;;;;5021382;28;20517;-90
2022/02/05 17:27:27;;;;;;;3.37;1.60;;;7.50;77.10;;;;;;5028756;28;20474;-90
2022/02/05 17:29:54;;;;;;;5.50;2.70;;;7.50;77.10;;;;;;5026485;28;20455;-91
2022/02/05 17:32:24;;;;;;;4.53;2.00;;;7.40;77.70;;;;;;5006951;28;20457;-89
2022/02/05 17:34:53;;;;;;;5.67;2.20;;;7.30;78.20;;;;;;5000120;28;20571;-90
2022/02/05 17:37:20;;;;;;;6.23;2.30;;;7.20;78.80;;;;;;5001460;28;20494;-89
2022/02/05 17:39:47;;;;;;;4.57;1.77;;;7.10;79.60;;;;;;5010666;28;20459;-90
2022/02/05 17:42:14;;;;;;;3.00;2.30;;;7.00;79.70;;;;;;5014528;28;20454;-90
2022/02/05 17:57:46;;;;;;;5.53;2.40;;;6.80;80.30;;;;;;4209466;22;20632;-90
2022/02/05 18:00:39;;;;;;;4.27;2.10;;;6.80;80.90;;;;;;5019874;28;20458;-90
2022/02/05 18:03:06;;;;;;;4.10;2.40;;;6.80;81.40;;;;;;5023323;28;20465;-91
2022/02/05 18:05:42;;;;;;;2.57;1.77;;;6.80;81.50;;;;;;5025933;28;20545;-90
2022/02/05 18:08:27;;;;;;;5.70;2.67;;;6.90;81.60;;;;;;5021988;28;20477;-90
2022/02/05 18:11:00;;;;;;;3.57;2.30;;;7.00;81.50;;;;;;5002507;28;20498;-90
2022/02/05 18:13:54;;;;;;;5.50;2.47;;;7.00;81.60;;;;;;5001474;28;20454;-90
2022/02/05 18:16:30;;;;;;;7.07;2.70;;;7.00;82.00;;;;;;4990715;28;20474;-90
2022/02/05 18:19:04;;;;;;;3.90;2.20;;;7.10;81.70;;;;;;5004023;28;20482;-89